Time;durP1;ratioP1;P1;durP2;ratioP2;P2;SDS_P1;SDS_P2;PMS_P1;PMS_P2;Temp;Humidity;BMP_temperature;BMP_pressure;BME280_temperature;BME280_humidity;BME280_pressure;Samples;Min_cycle;Max_cycle;Signal;HPM_P1;HPM_P2
2021/12/15 00:00:21;;;;;;;0.40;0.40;;;;;;;23.21;31.96;97830.50;5028326;28;20029;-30
2021/12/15 00:02:50;;;;;;;0.45;0.45;;;;;;;23.20;31.89;97839.25;5030649;28;20055;-30
2021/12/15 00:05:21;;;;;;;0.60;0.50;;;;;;;23.21;31.70;97840.97;5010712;28;20026;-29
2021/12/15 00:07:47;;;;;;;0.40;0.40;;;;;;;23.20;31.76;97834.03;5029772;28;20448;-29
2021/12/15 00:10:12;;;;;;;0.55;0.50;;;;;;;23.20;32.02;97834.03;5026649;28;20108;-30
2021/12/15 00:12:38;;;;;;;0.50;0.50;;;;;;;23.19;31.77;97834.91;5022866;28;20041;-31
2021/12/15 00:15:04;;;;;;;0.95;0.65;;;;;;;23.20;31.81;97834.03;5028248;28;20028;-31
2021/12/15 00:17:29;;;;;;;0.70;0.70;;;;;;;23.20;31.75;97834.03;5027147;28;20068;-31
2021/12/15 00:19:55;;;;;;;0.90;0.70;;;;;;;23.20;31.91;97828.81;5027859;28;20538;-31
2021/12/15 00:22:20;;;;;;;0.60;0.60;;;;;;;23.18;31.93;97830.59;5031607;28;20029;-32
2021/12/15 00:24:46;;;;;;;0.50;0.50;;;;;;;23.21;31.78;97835.75;5041159;28;20033;-33
2021/12/15 00:27:11;;;;;;;0.43;0.40;;;;;;;23.21;31.86;97827.91;5032710;28;20578;-31
2021/12/15 00:29:36;;;;;;;0.60;0.60;;;;;;;23.21;31.97;97830.50;5031354;28;20427;-29
2021/12/15 00:32:04;;;;;;;0.60;0.60;;;;;;;23.20;31.99;97835.78;5030121;28;20495;-30
2021/12/15 00:34:31;;;;;;;0.75;0.75;;;;;;;23.20;31.75;97834.03;5033500;28;20029;-32
2021/12/15 00:36:57;;;;;;;0.60;0.60;;;;;;;23.21;31.97;97837.50;5032488;28;20554;-28
2021/12/15 00:39:22;;;;;;;0.60;0.60;;;;;;;23.20;31.75;97843.63;5031925;28;20041;-29
2021/12/15 00:41:48;;;;;;;0.45;0.45;;;;;;;23.20;32.02;97841.88;5030538;28;20395;-31
2021/12/15 00:44:13;;;;;;;0.55;0.50;;;;;;;23.19;31.77;97837.53;5031700;28;20025;-30
2021/12/15 00:46:39;;;;;;;0.75;0.60;;;;;;;23.20;32.00;97834.03;5032635;28;20550;-30
2021/12/15 00:49:05;;;;;;;0.63;0.60;;;;;;;23.19;31.89;97842.75;5031231;28;20041;-34
2021/12/15 00:51:30;;;;;;;0.60;0.55;;;;;;;23.19;31.74;97845.38;5027655;28;20029;-29
2021/12/15 00:53:56;;;;;;;0.50;0.50;;;;;;;23.20;31.79;97841.00;5033280;28;20025;-33
2021/12/15 00:56:21;;;;;;;0.40;0.40;;;;;;;23.20;31.97;97847.13;5031962;28;20819;-31
2021/12/15 00:58:47;;;;;;;0.40;0.40;;;;;;;23.19;31.89;97842.75;5030160;28;20062;-30
2021/12/15 01:01:12;;;;;;;0.50;0.50;;;;;;;23.20;32.01;97844.50;5032777;28;20025;-29
2021/12/15 01:03:38;;;;;;;0.32;0.32;;;;;;;23.21;31.88;97850.56;5032139;28;20700;-31
2021/12/15 01:06:09;;;;;;;0.60;0.60;;;;;;;23.21;31.99;97845.34;5028760;28;20028;-33
2021/12/15 01:08:39;;;;;;;0.40;0.40;;;;;;;23.21;31.87;97845.34;5034276;28;20087;-30
2021/12/15 01:11:14;;;;;;;0.55;0.47;;;;;;;23.20;31.93;97849.72;5030539;28;20512;-32
2021/12/15 01:21:57;;;;;;;0.75;0.68;;;;;;;23.19;31.73;97845.38;5031352;28;20035;-32
2021/12/15 01:24:22;;;;;;;1.00;0.70;;;;;;;23.18;31.96;97846.28;5028817;28;20025;-32
2021/12/15 01:26:48;;;;;;;0.73;0.73;;;;;;;23.18;31.86;97843.66;5038364;28;20024;-29
2021/12/15 01:29:13;;;;;;;0.80;0.50;;;;;;;23.18;32.00;97848.88;5033239;28;20571;-29
2021/12/15 01:31:38;;;;;;;0.70;0.70;;;;;;;23.18;32.01;97848.06;5030076;28;20675;-34
2021/12/15 01:34:04;;;;;;;0.80;0.63;;;;;;;23.19;31.72;97852.38;5032333;28;20475;-29
2021/12/15 01:36:29;;;;;;;0.68;0.65;;;;;;;23.18;31.80;97848.88;5031116;28;20273;-31
2021/12/15 01:38:55;;;;;;;0.80;0.80;;;;;;;23.18;31.97;97853.28;5029624;28;20463;-31
2021/12/15 01:41:22;;;;;;;0.70;0.65;;;;;;;23.18;31.87;97856.72;5031716;28;20253;-32
2021/12/15 01:46:57;;;;;;;1.83;0.90;;;;;;;23.19;31.86;97857.59;5032540;28;20033;-31
2021/12/15 01:49:50;;;;;;;0.63;0.60;;;;;;;23.18;31.70;97859.34;5031394;28;20650;-29
2021/12/15 01:52:27;;;;;;;0.82;0.70;;;;;;;23.18;31.76;97859.34;5025396;28;20095;-28
2021/12/15 01:54:55;;;;;;;0.68;0.60;;;;;;;23.19;31.85;97866.28;5031252;28;20234;-30
2021/12/15 01:57:22;;;;;;;1.75;0.82;;;;;;;23.19;31.87;97862.84;5030853;28;20043;-29
2021/12/15 01:59:48;;;;;;;0.70;0.70;;;;;;;23.15;31.92;97856.81;5030905;28;20033;-31
2021/12/15 02:02:14;;;;;;;1.10;0.90;;;;;;;23.17;31.79;97855.03;5028810;28;20021;-33
2021/12/15 02:04:40;;;;;;;0.82;0.80;;;;;;;23.17;31.99;97857.63;5031061;28;20056;-31
2021/12/15 02:07:07;;;;;;;0.70;0.70;;;;;;;23.17;31.91;97855.03;5031800;28;20491;-30
2021/12/15 02:12:19;;;;;;;0.50;0.50;;;;;;;23.17;31.91;97862.88;5029768;28;20886;-30
2021/12/15 02:14:44;;;;;;;0.80;0.60;;;;;;;23.17;31.74;97855.03;5031234;28;20475;-32
2021/12/15 02:17:10;;;;;;;0.70;0.70;;;;;;;23.18;32.06;97861.13;5029587;28;20033;-31
2021/12/15 02:19:35;;;;;;;0.80;0.80;;;;;;;23.17;31.94;97862.00;5030283;28;20025;-32
2021/12/15 02:22:00;;;;;;;0.68;0.60;;;;;;;23.16;31.95;97863.78;5029467;28;20029;-29
2021/12/15 02:24:27;;;;;;;0.80;0.80;;;;;;;23.17;31.77;97859.38;5029737;28;20614;-31
2021/12/15 02:26:58;;;;;;;0.95;0.80;;;;;;;23.17;31.95;97860.25;5029970;28;20049;-32
2021/12/15 02:29:23;;;;;;;1.02;0.80;;;;;;;23.18;31.81;97861.97;5012943;28;20022;-30
2021/12/15 02:39:29;;;;;;;0.82;0.63;;;;;;;23.17;31.82;97859.38;5029333;28;20036;-33
2021/12/15 02:41:55;;;;;;;0.80;0.50;;;;;;;23.16;32.03;97853.31;5029307;28;20033;-32
2021/12/15 02:44:21;;;;;;;0.57;0.55;;;;;;;23.17;31.70;97856.78;5028641;28;20033;-31
2021/12/15 02:46:46;;;;;;;3.42;0.90;;;;;;;23.12;31.87;97853.41;5030720;28;20036;-33
2021/12/15 02:49:14;;;;;;;0.52;0.50;;;;;;;23.16;31.93;97850.69;5026693;28;20026;-34
2021/12/15 02:51:41;;;;;;;0.60;0.60;;;;;;;23.16;31.89;97850.69;5029560;28;20593;-34
2021/12/15 02:54:11;;;;;;;0.60;0.60;;;;;;;23.17;31.74;97860.25;5027865;28;20033;-34
2021/12/15 02:56:37;;;;;;;0.73;0.60;;;;;;;23.17;31.79;97860.25;5030935;28;20120;-29
2021/12/15 02:59:05;;;;;;;0.80;0.77;;;;;;;23.17;31.65;97857.63;5029393;28;20021;-28
2021/12/15 03:07:07;;;;;;;0.50;0.50;;;;;;;23.17;31.76;97856.78;5024739;28;20586;-28
2021/12/15 03:15:29;;;;;;;0.50;0.50;;;;;;;23.16;31.87;97858.53;5031421;28;20053;-30
2021/12/15 03:18:14;;;;;;;0.80;0.63;;;;;;;23.15;31.99;97851.56;5029323;28;20025;-37
2021/12/15 03:20:48;;;;;;;0.98;0.75;;;;;;;23.15;31.96;97858.56;5028665;28;20116;-29
2021/12/15 03:23:19;;;;;;;0.63;0.60;;;;;;;23.14;31.75;97860.31;5027729;28;20132;-32
2021/12/15 03:25:44;;;;;;;0.60;0.60;;;;;;;23.15;31.78;97861.19;5027246;28;20029;-27
2021/12/15 03:33:54;;;;;;;0.77;0.63;;;;;;;23.14;31.89;97868.16;5031332;28;20392;-32
2021/12/15 03:36:40;;;;;;;0.60;0.60;;;;;;;23.15;31.90;97872.50;5014304;28;20193;-31
2021/12/15 03:39:08;;;;;;;0.68;0.50;;;;;;;23.14;31.96;97870.78;5026928;28;20083;-32
2021/12/15 03:41:33;;;;;;;0.50;0.50;;;;;;;23.15;31.92;97872.50;5029446;28;20056;-30
2021/12/15 03:44:00;;;;;;;1.75;0.50;;;;;;;23.14;31.83;97865.56;5029544;28;20021;-28
2021/12/15 03:46:26;;;;;;;0.60;0.60;;;;;;;23.15;31.85;97862.03;5028103;28;20036;-28
2021/12/15 03:48:51;;;;;;;0.65;0.60;;;;;;;23.14;31.71;97868.16;5026801;28;20037;-33
2021/12/15 03:51:16;;;;;;;1.13;0.80;;;;;;;23.15;31.73;97872.50;5029276;28;20106;-30
2021/12/15 03:53:42;;;;;;;0.65;0.60;;;;;;;23.14;31.92;97868.16;5028094;28;20059;-28
2021/12/15 03:56:10;;;;;;;0.65;0.65;;;;;;;23.16;31.96;97868.13;5028698;28;20446;-30
2021/12/15 03:58:35;;;;;;;0.40;0.40;;;;;;;23.14;31.93;97868.16;5029597;28;20052;-31
2021/12/15 04:01:07;;;;;;;0.50;0.50;;;;;;;23.14;31.89;97862.09;5030490;28;20029;-28
2021/12/15 04:03:34;;;;;;;;;;;;;;;23.14;31.77;97870.78;5031202;28;20148;-30
2021/12/15 04:06:01;;;;;;;0.85;0.60;;;;;;;23.15;31.93;97877.72;5032413;28;19913;-32
2021/12/15 04:08:27;;;;;;;0.70;0.50;;;;;;;23.15;31.91;97885.56;5029592;28;20041;-32
2021/12/15 04:10:52;;;;;;;0.50;0.50;;;;;;;23.14;31.95;97881.25;5019556;28;20460;-28
2021/12/15 04:13:18;;;;;;;0.50;0.50;;;;;;;23.15;31.69;97877.72;5027816;28;20044;-27
2021/12/15 04:15:47;;;;;;;0.77;0.60;;;;;;;23.14;31.81;97881.25;5027560;28;20032;-33
2021/12/15 04:18:13;;;;;;;0.77;0.60;;;;;;;23.09;31.86;97872.66;5028220;28;20021;-31
2021/12/15 04:20:39;;;;;;;0.57;0.50;;;;;;;23.15;32.02;97888.19;5028437;28;20032;-30
2021/12/15 04:23:05;;;;;;;0.60;0.57;;;;;;;23.14;31.91;97877.78;5031591;28;20057;-30
2021/12/15 04:25:33;;;;;;;0.60;0.60;;;;;;;23.15;31.73;97876.88;5027880;28;20029;-29
2021/12/15 04:28:05;;;;;;;0.70;0.70;;;;;;;23.15;31.85;97876.88;5029405;28;20051;-27
2021/12/15 04:30:32;;;;;;;0.55;0.50;;;;;;;23.14;31.94;97883.84;5026287;28;20041;-31
2021/12/15 04:33:00;;;;;;;0.50;0.50;;;;;;;23.15;31.77;97887.34;5028427;28;20396;-32
2021/12/15 04:35:27;;;;;;;0.43;0.43;;;;;;;23.13;31.91;97884.75;5028438;28;20029;-31
2021/12/15 04:37:53;;;;;;;0.35;0.35;;;;;;;23.14;31.68;97889.09;5031485;28;20522;-31
2021/12/15 04:40:19;;;;;;;0.63;0.60;;;;;;;23.14;31.78;97886.47;5029925;28;20108;-30
2021/12/15 04:42:45;;;;;;;0.60;0.60;;;;;;;23.13;31.77;97890.00;5028759;28;20049;-32
2021/12/15 04:45:14;;;;;;;0.60;0.60;;;;;;;23.12;31.82;97883.06;5029291;28;20112;-31
2021/12/15 04:47:40;;;;;;;0.40;0.40;;;;;;;23.15;31.71;97892.56;5034096;28;20044;-30
2021/12/15 04:50:06;;;;;;;0.60;0.60;;;;;;;23.14;31.88;97886.47;5028923;28;20029;-32
2021/12/15 04:52:32;;;;;;;0.50;0.50;;;;;;;23.15;31.63;97885.56;5026048;28;20044;-34
2021/12/15 04:54:58;;;;;;;0.70;0.70;;;;;;;23.15;31.97;97888.19;5027683;28;20029;-29
2021/12/15 04:57:24;;;;;;;0.80;0.63;;;;;;;23.15;31.93;97887.34;5030802;28;20025;-40
2021/12/15 04:59:50;;;;;;;0.63;0.63;;;;;;;23.13;31.71;97879.53;5025088;28;20111;-30
2021/12/15 05:02:15;;;;;;;0.47;0.40;;;;;;;23.15;31.72;97885.56;5027500;28;20029;-34
2021/12/15 05:04:41;;;;;;;0.40;0.40;;;;;;;23.15;31.70;97887.34;5027746;28;20029;-32
2021/12/15 05:07:07;;;;;;;0.57;0.40;;;;;;;23.15;31.79;97884.72;5020329;28;20036;-28
2021/12/15 05:09:32;;;;;;;0.63;0.60;;;;;;;23.14;31.90;97881.25;5032594;28;20030;-31
2021/12/15 05:11:57;;;;;;;0.50;0.50;;;;;;;23.15;31.68;97884.72;5032688;28;20734;-30
2021/12/15 05:14:23;;;;;;;0.60;0.50;;;;;;;23.14;31.68;97896.94;5028648;28;20025;-30
2021/12/15 05:16:49;;;;;;;0.47;0.47;;;;;;;23.14;31.65;97885.63;5031482;28;20048;-39
2021/12/15 05:19:15;;;;;;;0.55;0.55;;;;;;;23.15;31.91;97892.56;5033807;28;20087;-29
2021/12/15 05:21:40;;;;;;;0.50;0.50;;;;;;;23.13;31.80;97892.59;5034040;28;20039;-29
2021/12/15 05:24:23;;;;;;;0.40;0.40;;;;;;;23.14;31.68;97896.94;5032246;28;20028;-32
2021/12/15 05:26:49;;;;;;;0.60;0.60;;;;;;;23.13;31.97;97892.59;5031714;28;20090;-31
2021/12/15 05:29:14;;;;;;;0.30;0.30;;;;;;;23.13;31.69;97895.22;5030240;28;20052;-31
2021/12/15 05:31:40;;;;;;;0.50;0.43;;;;;;;23.14;31.68;97896.09;5030170;28;20037;-31
2021/12/15 05:34:05;;;;;;;0.47;0.40;;;;;;;23.13;31.73;97900.44;5031275;28;20326;-27
2021/12/15 05:36:31;;;;;;;1.10;0.70;;;;;;;23.13;31.86;97903.06;5032804;28;20052;-30
2021/12/15 05:38:56;;;;;;;0.47;0.47;;;;;;;23.14;31.85;97906.56;5031142;28;20025;-29
2021/12/15 05:41:22;;;;;;;0.40;0.40;;;;;;;23.14;31.64;97907.38;5030793;28;20028;-30
2021/12/15 05:43:47;;;;;;;0.50;0.50;;;;;;;23.14;31.83;97912.63;5031408;28;20059;-33
2021/12/15 05:46:13;;;;;;;0.35;0.35;;;;;;;23.14;31.80;97912.63;5031750;28;20037;-32
2021/12/15 05:48:38;;;;;;;0.40;0.40;;;;;;;23.13;31.83;97905.69;5030396;28;20025;-34
2021/12/15 05:51:03;;;;;;;0.52;0.43;;;;;;;23.10;31.73;97910.97;5021632;28;20409;-29
2021/12/15 05:53:29;;;;;;;0.40;0.40;;;;;;;23.14;31.83;97906.56;5031882;28;20025;-33
2021/12/15 05:55:54;;;;;;;0.45;0.45;;;;;;;23.13;31.75;97903.06;5031268;28;20026;-27
2021/12/15 05:58:20;;;;;;;0.50;0.50;;;;;;;23.13;31.77;97908.28;5037597;28;20043;-30
2021/12/15 06:00:45;;;;;;;0.45;0.45;;;;;;;23.13;31.78;97915.25;5029929;28;20030;-32
2021/12/15 06:03:11;;;;;;;0.50;0.43;;;;;;;23.12;31.66;97918.78;5033184;28;20035;-29
2021/12/15 06:05:36;;;;;;;0.60;0.60;;;;;;;23.12;31.77;97919.66;5028216;28;20029;-31
2021/12/15 06:08:03;;;;;;;0.50;0.50;;;;;;;23.13;31.61;97926.59;5030786;28;20415;-32
2021/12/15 06:10:28;;;;;;;0.57;0.57;;;;;;;23.12;31.80;97922.28;5027316;28;20079;-31
2021/12/15 06:12:55;;;;;;;0.52;0.50;;;;;;;23.12;31.60;97924.88;5029078;28;20025;-30
2021/12/15 06:15:23;;;;;;;0.32;0.32;;;;;;;23.13;31.65;97923.97;5026789;28;20037;-32
2021/12/15 06:17:55;;;;;;;0.75;0.50;;;;;;;23.13;31.84;97923.97;5031379;28;20152;-31
2021/12/15 06:20:20;;;;;;;0.65;0.65;;;;;;;23.14;31.57;97928.31;5027060;28;20025;-28
2021/12/15 06:22:47;;;;;;;0.30;0.30;;;;;;;23.13;31.85;97925.72;5029137;28;20032;-31
2021/12/15 06:25:12;;;;;;;0.40;0.40;;;;;;;23.12;31.71;97930.13;5032026;28;20021;-27
2021/12/15 06:27:40;;;;;;;0.57;0.50;;;;;;;23.13;31.80;97926.59;5031733;28;20072;-28
2021/12/15 06:30:06;;;;;;;0.40;0.40;;;;;;;23.13;31.60;97929.22;5027854;28;20040;-31
2021/12/15 06:32:32;;;;;;;0.32;0.32;;;;;;;23.13;31.75;97921.38;5030338;28;20049;-31
2021/12/15 06:34:57;;;;;;;0.35;0.35;;;;;;;23.13;31.70;97931.81;5030370;28;20075;-30
2021/12/15 06:37:23;;;;;;;0.45;0.43;;;;;;;23.12;31.69;97935.34;5031254;28;20034;-34
2021/12/15 06:39:48;;;;;;;0.40;0.40;;;;;;;23.12;31.85;97940.56;5030386;28;20028;-29
2021/12/15 06:42:14;;;;;;;0.60;0.57;;;;;;;23.14;31.87;97943.16;5029921;28;20025;-29
2021/12/15 06:44:40;;;;;;;0.50;0.50;;;;;;;23.12;31.85;97945.81;5031901;28;20036;-29
2021/12/15 07:00:33;;;;;;;0.50;0.50;;;;;;;23.10;31.69;97947.56;5027861;28;20040;-28
2021/12/15 07:02:59;;;;;;;0.32;0.32;;;;;;;23.12;31.64;97955.38;5027941;28;20038;-32
2021/12/15 07:05:25;;;;;;;0.40;0.40;;;;;;;23.09;31.74;97954.59;5029755;28;20029;-30
2021/12/15 07:07:51;;;;;;;0.40;0.40;;;;;;;23.10;31.62;97952.81;5026970;28;20033;-31
2021/12/15 07:10:20;;;;;;;0.40;0.40;;;;;;;23.10;31.96;97952.81;5026598;28;20041;-26
2021/12/15 07:12:46;;;;;;;1.48;0.40;;;;;;;23.10;31.85;97958.03;5028017;28;20029;-29
2021/12/15 07:15:11;;;;;;;0.40;0.40;;;;;;;23.11;31.80;97967.63;5026788;28;20179;-25
2021/12/15 07:17:39;;;;;;;0.40;0.40;;;;;;;23.09;31.63;97962.44;5027820;28;20025;-31
2021/12/15 07:20:32;;;;;;;0.50;0.50;;;;;;;23.09;31.58;97965.03;5028699;28;20052;-29
2021/12/15 07:22:53;;;;;;;0.40;0.40;;;;;;;23.10;31.62;97973.72;5024908;28;20099;-28
2021/12/15 07:25:18;;;;;;;0.38;0.38;;;;;;;23.10;31.60;97984.19;5025325;28;20816;-31
2021/12/15 07:27:44;;;;;;;0.40;0.40;;;;;;;23.10;31.83;97990.28;5029275;28;20028;-29
2021/12/15 07:30:10;;;;;;;0.40;0.40;;;;;;;23.09;31.65;97990.31;5027520;28;20040;-29
2021/12/15 07:32:35;;;;;;;0.40;0.40;;;;;;;23.10;31.72;98000.75;5027344;28;20029;-29
2021/12/15 07:35:01;;;;;;;0.55;0.50;;;;;;;23.10;31.74;98002.47;5026262;28;20040;-26
2021/12/15 07:37:26;;;;;;;0.50;0.50;;;;;;;23.11;31.75;97999.00;5027236;28;20113;-28
2021/12/15 07:39:58;;;;;;;0.40;0.40;;;;;;;23.10;31.85;97999.88;5026993;28;20086;-32
2021/12/15 07:42:33;;;;;;;0.40;0.40;;;;;;;23.10;31.85;98005.09;5026223;28;20039;-29
2021/12/15 07:44:58;;;;;;;0.60;0.50;;;;;;;23.10;31.67;98005.97;5028668;28;20033;-28
2021/12/15 07:47:24;;;;;;;0.50;0.50;;;;;;;23.10;31.71;98005.09;5027239;28;20739;-30
2021/12/15 07:49:50;;;;;;;0.40;0.40;;;;;;;23.11;31.83;98006.84;5026442;28;20499;-29
2021/12/15 07:52:16;;;;;;;0.65;0.65;;;;;;;23.10;31.81;98007.72;5023518;28;20033;-32
2021/12/15 07:54:41;;;;;;;0.85;0.40;;;;;;;23.10;31.63;98016.44;5025000;28;20025;-30
2021/12/15 07:57:10;;;;;;;1.02;0.60;;;;;;;23.08;31.69;98006.91;5010852;28;20079;-28
2021/12/15 07:59:35;;;;;;;0.50;0.50;;;;;;;23.10;31.87;98015.56;5022302;28;20028;-28
2021/12/15 08:02:01;;;;;;;0.65;0.60;;;;;;;23.09;31.64;98009.50;5027465;28;20041;-24
2021/12/15 08:04:26;;;;;;;0.47;0.47;;;;;;;23.09;31.59;98013.84;5017937;28;20028;-31
2021/12/15 08:06:52;;;;;;;0.30;0.30;;;;;;;23.09;31.62;98016.47;5022316;28;20026;-31
2021/12/15 08:09:17;;;;;;;0.40;0.40;;;;;;;23.09;31.86;98017.34;5025194;28;20517;-27
2021/12/15 08:11:43;;;;;;;0.40;0.40;;;;;;;23.10;31.71;98024.28;5024567;28;20039;-30
2021/12/15 08:14:08;;;;;;;0.60;0.60;;;;;;;23.09;31.61;98024.31;5029419;28;20041;-33
2021/12/15 08:16:34;;;;;;;1.50;0.65;;;;;;;23.11;31.52;98027.75;5025173;28;20029;-29
2021/12/15 08:18:59;;;;;;;0.40;0.40;;;;;;;23.10;31.85;98020.78;5026698;28;20021;-31
2021/12/15 08:21:25;;;;;;;0.50;0.50;;;;;;;23.10;31.51;98020.78;5026860;28;20056;-29
2021/12/15 08:23:50;;;;;;;0.30;0.30;;;;;;;23.09;31.52;98021.69;5034531;28;20037;-29
2021/12/15 08:26:17;;;;;;;0.50;0.50;;;;;;;23.09;31.57;98024.31;5028324;28;20791;-30
2021/12/15 08:28:42;;;;;;;0.60;0.60;;;;;;;23.09;31.70;98027.78;5029483;28;20033;-28
2021/12/15 08:31:08;;;;;;;0.70;0.50;;;;;;;23.09;31.75;98027.78;5026640;28;20028;-29
2021/12/15 08:33:34;;;;;;;1.42;0.60;;;;;;;23.07;31.78;98023.50;5028020;28;20098;-31
2021/12/15 08:36:02;;;;;;;0.70;0.70;;;;;;;23.08;31.66;98033.88;5026973;28;20043;-32
2021/12/15 08:38:28;;;;;;;0.40;0.32;;;;;;;23.08;31.65;98033.06;5026966;28;20021;-30
2021/12/15 08:40:54;;;;;;;0.60;0.60;;;;;;;23.08;31.64;98038.28;5024673;28;20032;-28
2021/12/15 08:43:20;;;;;;;0.60;0.60;;;;;;;23.09;31.60;98040.00;5030389;28;20451;-32
2021/12/15 08:45:59;;;;;;;0.65;0.65;;;;;;;23.09;31.83;98037.38;5033487;28;20029;-29
2021/12/15 08:48:24;;;;;;;0.73;0.70;;;;;;;23.09;31.62;98040.00;5031077;28;20056;-27
2021/12/15 08:50:50;;;;;;;0.75;0.70;;;;;;;23.09;31.43;98053.06;5031801;28;20503;-32
2021/12/15 08:53:15;;;;;;;1.00;0.90;;;;;;;23.10;31.69;98049.56;5033313;28;20026;-29
2021/12/15 08:55:42;;;;;;;0.68;0.68;;;;;;;23.10;31.60;98049.56;5028388;28;20082;-27
2021/12/15 08:58:10;;;;;;;0.60;0.60;;;;;;;23.08;31.53;98046.97;5033430;28;20127;-28
2021/12/15 09:00:36;;;;;;;0.60;0.60;;;;;;;23.09;31.70;98046.09;5027904;28;20036;-31
2021/12/15 09:03:02;;;;;;;0.70;0.70;;;;;;;23.09;31.61;98045.22;5030948;28;20416;-29
2021/12/15 09:05:27;;;;;;;0.60;0.60;;;;;;;23.10;31.50;98041.72;5031527;28;20028;-32
2021/12/15 09:07:54;;;;;;;0.63;0.55;;;;;;;23.09;31.63;98042.59;5031579;28;20466;-30
2021/12/15 09:10:21;;;;;;;0.52;0.52;;;;;;;23.09;31.65;98040.00;5029975;28;20029;-31
2021/12/15 09:12:46;;;;;;;0.70;0.63;;;;;;;23.09;31.47;98042.59;5032009;28;20021;-31
2021/12/15 09:15:12;;;;;;;0.60;0.60;;;;;;;23.09;31.57;98040.00;5032684;28;20708;-29
2021/12/15 09:17:37;;;;;;;0.70;0.70;;;;;;;23.07;31.48;98042.63;5033572;28;20029;-31
2021/12/15 09:20:05;;;;;;;0.52;0.52;;;;;;;23.08;31.59;98046.13;5029817;28;20403;-31
2021/12/15 09:22:31;;;;;;;0.60;0.60;;;;;;;23.07;31.73;98047.03;5030147;28;20076;-31
2021/12/15 09:24:56;;;;;;;0.82;0.82;;;;;;;23.08;31.66;98043.50;5029542;28;20503;-28
2021/12/15 09:27:22;;;;;;;0.70;0.63;;;;;;;23.08;31.60;98046.97;5030183;28;20296;-30
2021/12/15 09:29:47;;;;;;;0.50;0.50;;;;;;;23.08;31.40;98053.97;5030026;28;20055;-30
2021/12/15 09:32:14;;;;;;;0.60;0.60;;;;;;;23.08;31.57;98060.03;5029240;28;20343;-33
2021/12/15 09:34:39;;;;;;;0.60;0.60;;;;;;;23.07;31.71;98063.56;5028892;28;20031;-32
2021/12/15 09:37:05;;;;;;;0.57;0.43;;;;;;;23.09;31.54;98058.28;5029446;28;20033;-34
2021/12/15 09:39:30;;;;;;;1.23;0.57;;;;;;;23.08;31.73;98064.44;5030798;28;20696;-28
2021/12/15 09:41:56;;;;;;;0.50;0.50;;;;;;;23.07;31.61;98066.16;5028178;28;20040;-30
2021/12/15 09:44:24;;;;;;;0.70;0.52;;;;;;;23.08;31.43;98067.03;5031145;28;20029;-31
2021/12/15 10:02:02;;;;;;;0.50;0.50;;;;;;;23.06;31.33;98076.66;5029594;28;20572;-31
2021/12/15 10:03:34;;;;;;;0.65;0.50;;;;;;;23.06;31.64;98071.44;5029857;28;20581;-33
2021/12/15 10:19:29;;;;;;;0.40;0.32;;;;;;;23.05;31.83;98065.34;5027508;28;20064;-32
2021/12/15 10:22:44;;;;;;;0.43;0.43;;;;;;;23.05;31.75;98064.47;5025303;28;20029;-28
2021/12/15 10:25:13;;;;;;;0.40;0.40;;;;;;;23.04;31.53;98061.03;5028752;28;20094;-28
2021/12/15 10:27:45;;;;;;;0.47;0.47;;;;;;;23.05;31.68;98054.03;5029249;28;20534;-30
2021/12/15 10:30:25;;;;;;;0.35;0.35;;;;;;;23.03;31.61;98061.91;5028853;28;20055;-30
2021/12/15 10:33:16;;;;;;;0.73;0.63;;;;;;;23.04;31.53;98060.16;5030269;28;20680;-28
2021/12/15 10:35:50;;;;;;;0.45;0.45;;;;;;;23.04;31.79;98057.53;5027945;28;20607;-31
2021/12/15 10:38:22;;;;;;;0.68;0.47;;;;;;;23.05;31.60;98051.41;5028038;28;20940;-28
2021/12/15 10:40:54;;;;;;;0.40;0.40;;;;;;;23.04;31.76;98052.31;5029677;28;20036;-30
2021/12/15 10:43:21;;;;;;;0.60;0.50;;;;;;;23.04;31.60;98052.31;5029879;28;20090;-28
2021/12/15 10:45:52;;;;;;;0.60;0.60;;;;;;;23.03;31.73;98051.44;5029563;28;20484;-30
2021/12/15 10:48:40;;;;;;;0.47;0.20;;;;;;;23.04;31.79;98057.53;5027724;28;20517;-30
2021/12/15 10:51:30;;;;;;;0.50;0.50;;;;;;;23.03;31.78;98051.44;5026977;28;20037;-29
2021/12/15 10:53:58;;;;;;;0.40;0.40;;;;;;;23.04;31.77;98049.69;5029248;28;20029;-30
2021/12/15 10:56:25;;;;;;;0.30;0.30;;;;;;;23.05;31.64;98048.78;5026215;28;20025;-31
2021/12/15 10:58:53;;;;;;;0.40;0.40;;;;;;;23.05;31.78;98048.78;5027760;28;20079;-27
2021/12/15 11:01:59;;;;;;;0.32;0.32;;;;;;;23.05;31.58;98048.78;5025356;28;20380;-27
2021/12/15 11:04:45;;;;;;;0.40;0.40;;;;;;;23.05;31.63;98048.78;5023773;28;20121;-31
2021/12/15 11:07:15;;;;;;;0.60;0.50;;;;;;;23.05;31.83;98043.56;5029071;28;20503;-30
2021/12/15 11:09:49;;;;;;;0.40;0.40;;;;;;;23.05;31.83;98043.56;5028110;28;20034;-29
2021/12/15 11:12:40;;;;;;;0.40;0.40;;;;;;;23.04;31.58;98047.09;5027232;28;20028;-30
2021/12/15 11:15:08;;;;;;;0.32;0.32;;;;;;;23.05;31.80;98054.03;5028612;28;20021;-28
2021/12/15 11:17:36;;;;;;;0.30;0.30;;;;;;;23.05;31.77;98043.56;5027453;28;20033;-29
2021/12/15 11:20:10;;;;;;;0.40;0.40;;;;;;;23.04;31.77;98040.09;5024931;28;20132;-27
2021/12/15 11:22:37;;;;;;;0.50;0.50;;;;;;;23.06;31.62;98040.06;5027923;28;20039;-29
2021/12/15 11:25:21;;;;;;;0.30;0.30;;;;;;;23.05;31.73;98031.38;5028802;28;20032;-28
2021/12/15 11:28:14;;;;;;;0.32;0.32;;;;;;;23.05;31.55;98027.88;5026576;28;20029;-29
2021/12/15 11:30:48;;;;;;;0.40;0.40;;;;;;;23.05;31.72;98027.88;5024414;28;20073;-31
2021/12/15 11:33:16;;;;;;;0.30;0.30;;;;;;;23.06;31.72;98029.59;5025550;28;20454;-30
2021/12/15 11:36:04;;;;;;;0.43;0.40;;;;;;;23.05;31.78;98025.25;5008570;28;20035;-27
2021/12/15 11:39:07;;;;;;;0.55;0.43;;;;;;;23.06;31.73;98025.25;5028268;28;20397;-27
2021/12/15 11:41:34;;;;;;;;;;;;;;;23.06;31.50;98024.38;5025932;28;20351;-30
2021/12/15 11:44:02;;;;;;;0.57;0.50;;;;;;;23.07;31.69;98026.09;5026446;28;20543;-29
2021/12/15 11:46:33;;;;;;;0.35;0.35;;;;;;;23.06;31.65;98020.00;5028350;28;20033;-28
2021/12/15 11:49:04;;;;;;;0.70;0.50;;;;;;;23.06;31.75;98019.13;5028217;28;20033;-30
2021/12/15 11:52:06;;;;;;;0.50;0.50;;;;;;;23.05;31.63;98020.03;5025149;28;20040;-32
2021/12/15 11:54:36;;;;;;;0.50;0.50;;;;;;;23.06;31.65;98013.91;5035641;28;20037;-32
2021/12/15 11:57:07;;;;;;;0.38;0.30;;;;;;;23.05;31.77;98012.19;5026156;28;20499;-32
2021/12/15 11:59:40;;;;;;;0.30;0.30;;;;;;;23.06;31.75;98013.91;5028140;28;20583;-30
2021/12/15 12:02:10;;;;;;;0.73;0.40;;;;;;;23.05;31.64;98013.06;5026371;28;20055;-31
2021/12/15 12:04:49;;;;;;;0.30;0.30;;;;;;;23.06;31.74;98008.69;5027551;28;20021;-32
2021/12/15 12:07:33;;;;;;;0.40;0.40;;;;;;;23.06;31.65;98013.91;5029208;28;20107;-28
2021/12/15 12:10:06;;;;;;;0.40;0.40;;;;;;;23.07;31.61;98013.03;5025959;28;20069;-28
2021/12/15 12:12:38;;;;;;;0.35;0.35;;;;;;;23.06;31.72;98008.69;5024649;28;20514;-31
2021/12/15 12:15:05;;;;;;;0.70;0.47;;;;;;;23.05;31.70;98002.59;5008515;28;20048;-28
2021/12/15 12:17:33;;;;;;;0.50;0.50;;;;;;;23.05;31.63;98007.84;5031707;28;20118;-29
2021/12/15 12:20:24;;;;;;;2.10;1.90;;;;;;;23.05;31.72;97996.50;5030767;28;20244;-30
2021/12/15 12:22:50;;;;;;;0.70;0.70;;;;;;;23.04;31.69;97990.44;5031731;28;20487;-30
2021/12/15 12:25:34;;;;;;;0.70;0.70;;;;;;;23.06;31.49;97998.22;5031610;28;20040;-30
2021/12/15 12:27:59;;;;;;;0.57;0.55;;;;;;;23.07;31.65;97992.13;5032658;28;20086;-28
2021/12/15 12:30:27;;;;;;;0.68;0.60;;;;;;;23.06;31.76;97988.63;5029014;28;20060;-27
2021/12/15 12:32:53;;;;;;;0.63;0.60;;;;;;;23.06;31.50;97987.75;5031284;28;20041;-31
2021/12/15 12:35:22;;;;;;;0.75;0.55;;;;;;;23.07;31.82;97989.50;5029668;28;20060;-30
2021/12/15 12:37:56;;;;;;;0.65;0.50;;;;;;;23.07;31.59;97982.50;5029848;28;20103;-31
2021/12/15 12:40:47;;;;;;;0.45;0.40;;;;;;;23.07;31.74;97987.72;5030132;28;20051;-32
2021/12/15 12:43:33;;;;;;;0.68;0.52;;;;;;;23.08;31.75;97991.22;5029486;28;20426;-28
2021/12/15 12:46:17;;;;;;;0.60;0.60;;;;;;;23.07;31.52;97990.34;5016690;28;20036;-28
2021/12/15 12:49:16;;;;;;;0.40;0.40;;;;;;;23.07;31.52;97990.34;5030481;28;20025;-29
2021/12/15 13:00:19;;;;;;;;;;;;;;;23.07;31.58;97986.88;5034428;28;20086;-29
2021/12/15 13:02:48;;;;;;;0.57;0.40;;;;;;;23.07;31.43;97981.66;5029963;28;19963;-32
2021/12/15 13:05:26;;;;;;;0.57;0.40;;;;;;;23.06;31.71;97982.53;5045492;28;20021;-30
2021/12/15 13:07:53;;;;;;;0.50;0.50;;;;;;;23.05;31.75;97983.44;5030711;28;20108;-32
2021/12/15 13:10:20;;;;;;;0.50;0.50;;;;;;;23.07;31.43;97984.28;5033696;28;20498;-30